createdAt,value
2023-05-15T00:02:26.816Z,16.63
2023-05-15T00:04:54.064Z,18.03
2023-05-15T00:07:21.214Z,15.97
2023-05-15T00:09:48.201Z,17.17
2023-05-15T00:12:15.490Z,18.53
2023-05-15T00:14:42.382Z,17.13
2023-05-15T00:17:09.893Z,16.20
2023-05-15T00:19:36.836Z,22.60
2023-05-15T00:22:04.059Z,17.90
2023-05-15T00:24:30.984Z,16.77
2023-05-15T00:27:00.157Z,19.37
2023-05-15T00:29:27.514Z,19.53
2023-05-15T00:31:54.731Z,18.43
2023-05-15T00:34:22.205Z,18.30
2023-05-15T00:36:49.440Z,19.07
2023-05-15T00:39:16.437Z,16.37
2023-05-15T00:41:45.778Z,19.20
2023-05-15T00:44:13.784Z,22.00
2023-05-15T00:46:41.952Z,18.70
2023-05-15T00:49:13.592Z,16.67
2023-05-15T00:51:43.913Z,19.77
2023-05-15T00:54:11.583Z,18.07
2023-05-15T00:56:40.307Z,19.70
2023-05-15T00:59:08.666Z,18.93
2023-05-15T01:01:35.816Z,20.73
2023-05-15T01:04:05.145Z,20.33
2023-05-15T01:06:32.770Z,23.17
2023-05-15T01:09:08.028Z,22.03
2023-05-15T01:11:38.199Z,23.07
2023-05-15T01:14:08.017Z,20.40
2023-05-15T01:16:36.334Z,25.13
2023-05-15T01:19:05.451Z,21.03
2023-05-15T01:21:35.688Z,19.43
2023-05-15T01:24:56.597Z,21.73
2023-05-15T01:27:48.650Z,23.17
2023-05-15T01:30:27.116Z,21.10
2023-05-15T01:33:20.610Z,22.43
2023-05-15T01:36:05.967Z,21.40
2023-05-15T01:38:48.901Z,22.57
2023-05-15T01:41:55.870Z,23.47
2023-05-15T01:44:30.212Z,21.43
2023-05-15T01:47:07.808Z,23.40
2023-05-15T01:49:38.497Z,23.43
2023-05-15T01:52:18.857Z,22.90
2023-05-15T01:54:48.003Z,24.00
2023-05-15T01:57:17.096Z,22.70
2023-05-15T01:59:45.913Z,23.77
2023-05-15T02:02:15.328Z,21.90
2023-05-15T02:04:45.948Z,22.33
2023-05-15T02:07:14.724Z,24.67
2023-05-15T02:09:43.160Z,24.47
2023-05-15T02:12:11.791Z,24.47
2023-05-15T02:14:41.247Z,25.10
2023-05-15T02:17:08.465Z,21.80
2023-05-15T02:19:35.798Z,25.20
2023-05-15T02:22:03.670Z,20.63
2023-05-15T02:24:30.626Z,19.60
2023-05-15T02:27:28.522Z,20.73
2023-05-15T02:30:29.452Z,18.67
2023-05-15T02:33:17.348Z,19.83
2023-05-15T02:35:52.849Z,18.70
2023-05-15T02:38:29.151Z,20.60
2023-05-15T02:40:59.175Z,21.33
2023-05-15T02:43:27.809Z,20.70
2023-05-15T02:45:56.981Z,21.83
2023-05-15T02:48:26.926Z,23.67
2023-05-15T02:50:54.200Z,25.47
2023-05-15T02:53:21.554Z,28.80
2023-05-15T02:55:48.600Z,27.27
2023-05-15T02:58:16.106Z,26.80
2023-05-15T03:00:43.867Z,27.17
2023-05-15T03:03:10.824Z,25.83
2023-05-15T03:05:37.832Z,26.30
2023-05-15T03:08:05.748Z,25.27
2023-05-15T03:10:32.744Z,29.33
2023-05-15T03:12:59.688Z,26.60
2023-05-15T03:15:26.974Z,26.10
2023-05-15T03:17:54.144Z,29.27
2023-05-15T03:20:21.294Z,30.43
2023-05-15T03:22:48.366Z,30.27
2023-05-15T03:25:15.785Z,30.43
2023-05-15T03:27:42.922Z,31.73
2023-05-15T03:30:10.678Z,34.80
2023-05-15T03:32:37.605Z,31.80
2023-05-15T03:35:05.011Z,32.93
2023-05-15T03:37:32.623Z,32.73
2023-05-15T03:39:59.567Z,30.57
2023-05-15T03:42:27.896Z,32.60
2023-05-15T03:44:56.121Z,32.37
2023-05-15T03:47:23.232Z,31.40
2023-05-15T03:49:52.986Z,33.83
2023-05-15T03:52:20.068Z,31.77
2023-05-15T03:54:47.061Z,33.90
2023-05-15T03:57:13.991Z,32.43
2023-05-15T03:59:41.350Z,33.43
2023-05-15T04:02:08.417Z,31.03
2023-05-15T04:04:35.895Z,34.90
2023-05-15T04:07:02.864Z,30.77
2023-05-15T04:09:29.764Z,31.53
2023-05-15T04:11:56.866Z,33.10
2023-05-15T04:14:23.732Z,34.60
2023-05-15T04:16:50.858Z,35.40
2023-05-15T04:19:18.057Z,32.63
2023-05-15T04:21:45.250Z,31.20
2023-05-15T04:24:12.903Z,33.63
2023-05-15T04:26:39.917Z,32.37
2023-05-15T04:29:06.903Z,34.00
2023-05-15T04:31:35.161Z,34.80
2023-05-15T04:34:02.265Z,32.17
2023-05-15T04:36:29.266Z,35.60
2023-05-15T04:38:56.421Z,33.80
2023-05-15T04:41:23.566Z,35.20
2023-05-15T04:43:50.858Z,34.97
2023-05-15T04:46:17.819Z,38.20
2023-05-15T04:48:44.745Z,39.17
2023-05-15T04:51:12.198Z,38.23
2023-05-15T04:53:39.136Z,40.30
2023-05-15T04:56:06.306Z,35.40
2023-05-15T04:58:33.192Z,40.00
2023-05-15T05:01:03.543Z,37.70
2023-05-15T05:03:31.046Z,43.33
2023-05-15T05:05:58.006Z,41.90
2023-05-15T05:08:24.987Z,41.57
2023-05-15T05:10:58.433Z,42.63
2023-05-15T05:13:25.409Z,41.93
2023-05-15T05:15:52.358Z,44.23
2023-05-15T05:18:19.402Z,46.57
2023-05-15T05:20:46.346Z,49.40
2023-05-15T05:23:15.068Z,43.87
2023-05-15T05:25:42.212Z,51.10
2023-05-15T05:28:09.279Z,54.00
2023-05-15T05:30:36.229Z,45.37
2023-05-15T05:33:03.318Z,49.57
2023-05-15T05:35:30.292Z,51.47
2023-05-15T05:37:57.267Z,50.57
2023-05-15T05:40:24.248Z,50.50
2023-05-15T05:42:51.652Z,55.57
2023-05-15T05:45:18.700Z,52.90
2023-05-15T05:47:45.817Z,56.20
2023-05-15T05:50:12.790Z,53.63
2023-05-15T05:52:39.826Z,57.60
2023-05-15T05:55:07.218Z,52.67
2023-05-15T05:57:34.228Z,49.97
2023-05-15T06:00:01.349Z,51.27
2023-05-15T06:02:28.869Z,47.57
2023-05-15T06:04:55.828Z,52.40
2023-05-15T06:07:23.479Z,50.57
2023-05-15T06:09:50.504Z,46.53
2023-05-15T06:12:17.442Z,49.43
2023-05-15T06:14:44.447Z,48.67
2023-05-15T06:17:12.080Z,45.23
2023-05-15T06:19:39.094Z,43.53
2023-05-15T06:22:06.169Z,46.03
2023-05-15T06:24:33.304Z,42.37
2023-05-15T06:27:03.657Z,40.33
2023-05-15T06:29:30.790Z,40.00
2023-05-15T06:31:57.873Z,41.57
2023-05-15T06:34:24.936Z,42.10
2023-05-15T06:36:52.592Z,42.30
2023-05-15T06:39:19.605Z,41.73
2023-05-15T06:41:46.581Z,39.90
2023-05-15T06:44:13.647Z,38.37
2023-05-15T06:46:40.660Z,40.43
2023-05-15T06:49:07.655Z,39.93
2023-05-15T06:51:34.726Z,41.63
2023-05-15T06:54:01.810Z,37.33
2023-05-15T06:56:28.641Z,36.00
2023-05-15T06:58:56.551Z,37.60
2023-05-15T07:01:23.507Z,40.05
2023-05-15T07:03:50.580Z,42.63
2023-05-15T07:06:17.455Z,42.65
2023-05-15T07:08:44.498Z,40.92
2023-05-15T07:11:11.841Z,34.75
2023-05-15T07:13:38.854Z,34.80
2023-05-15T07:16:06.299Z,39.75
2023-05-15T07:18:33.440Z,35.05
2023-05-15T07:21:00.434Z,35.20
2023-05-15T07:23:27.653Z,32.83
2023-05-15T07:25:55.790Z,35.17
2023-05-15T07:28:23.113Z,37.30
2023-05-15T07:30:50.676Z,32.63
2023-05-15T07:33:17.744Z,36.97
2023-05-15T07:35:44.635Z,31.02
2023-05-15T07:38:12.111Z,33.17
2023-05-15T07:40:39.094Z,33.80
2023-05-15T07:43:06.042Z,31.55
2023-05-15T07:45:33.165Z,31.20
2023-05-15T07:48:13.699Z,29.40
2023-05-15T07:50:40.910Z,30.27
2023-05-15T07:53:07.888Z,30.88
2023-05-15T07:55:34.803Z,31.17
2023-05-15T07:58:01.746Z,29.35
2023-05-15T08:00:28.904Z,31.58
2023-05-15T08:02:56.417Z,26.73
2023-05-15T08:05:23.522Z,25.98
2023-05-15T08:07:50.801Z,27.75
2023-05-15T08:10:17.907Z,25.63
2023-05-15T08:12:47.167Z,25.13
2023-05-15T08:15:14.642Z,25.85
2023-05-15T08:17:41.758Z,24.73
2023-05-15T08:20:09.936Z,24.98
2023-05-15T08:22:36.923Z,25.08
2023-05-15T08:25:06.713Z,25.33
2023-05-15T08:27:33.869Z,25.52
2023-05-15T08:30:00.943Z,25.08
2023-05-15T08:32:28.131Z,25.02
2023-05-15T08:34:55.061Z,22.48
2023-05-15T08:37:22.101Z,24.67
2023-05-15T08:39:48.985Z,24.48
2023-05-15T08:42:34.119Z,22.38
2023-05-15T08:45:03.942Z,24.08
2023-05-15T08:47:35.559Z,22.52
2023-05-15T08:50:17.176Z,23.25
2023-05-15T08:52:49.499Z,23.27
2023-05-15T08:55:17.584Z,21.88
2023-05-15T08:57:46.263Z,21.73
2023-05-15T09:00:14.779Z,20.63
2023-05-15T09:02:43.163Z,22.20
2023-05-15T09:05:10.847Z,21.50
2023-05-15T09:07:40.894Z,22.90
2023-05-15T09:10:09.814Z,20.33
2023-05-15T09:12:45.971Z,21.50
2023-05-15T09:15:17.298Z,22.60
2023-05-15T09:17:45.965Z,21.48
2023-05-15T09:20:34.008Z,21.92
2023-05-15T09:23:04.548Z,20.98
2023-05-15T09:25:44.742Z,21.00
2023-05-15T09:28:28.087Z,20.48
2023-05-15T09:31:05.860Z,19.13
2023-05-15T09:33:38.820Z,21.73
2023-05-15T09:36:08.386Z,21.77
2023-05-15T09:38:48.115Z,20.27
2023-05-15T09:41:15.259Z,20.85
2023-05-15T09:43:42.271Z,20.10
2023-05-15T09:46:12.312Z,19.95
2023-05-15T09:48:39.492Z,19.10
2023-05-15T09:51:15.437Z,19.33
2023-05-15T09:53:42.695Z,20.02
2023-05-15T09:56:10.574Z,21.60
2023-05-15T09:58:37.634Z,20.77
2023-05-15T10:01:11.995Z,19.05
2023-05-15T10:03:43.677Z,18.00
2023-05-15T10:06:19.440Z,18.30
2023-05-15T10:08:56.058Z,19.92
2023-05-15T10:11:24.605Z,18.65
2023-05-15T10:13:51.592Z,20.35
2023-05-15T10:16:21.652Z,21.10
2023-05-15T10:18:51.364Z,19.13
2023-05-15T10:21:23.070Z,19.30
2023-05-15T10:23:54.866Z,19.45
2023-05-15T10:26:42.937Z,18.65
2023-05-15T10:29:18.319Z,18.00
2023-05-15T10:31:49.096Z,19.65
2023-05-15T10:34:18.611Z,18.90
2023-05-15T10:36:46.341Z,19.05
2023-05-15T10:39:13.917Z,18.60
2023-05-15T10:41:40.906Z,17.80
2023-05-15T10:44:08.721Z,18.00
2023-05-15T10:46:37.269Z,19.15
2023-05-15T10:49:05.384Z,17.05
2023-05-15T10:51:36.001Z,16.73
2023-05-15T10:54:06.073Z,17.38
2023-05-15T10:56:37.317Z,17.60
2023-05-15T10:59:11.044Z,18.65
2023-05-15T11:01:41.016Z,21.15
2023-05-15T11:04:10.600Z,20.35
2023-05-15T11:06:41.322Z,18.88
2023-05-15T11:09:27.728Z,20.27
2023-05-15T11:11:58.280Z,20.17
2023-05-15T11:14:27.734Z,18.10
2023-05-15T11:16:54.654Z,17.27
2023-05-15T11:19:38.010Z,20.30
2023-05-15T11:22:27.666Z,20.50
2023-05-15T11:25:14.363Z,19.80
2023-05-15T11:27:43.214Z,18.52
2023-05-15T11:30:22.410Z,18.77
2023-05-15T11:32:52.407Z,19.25
2023-05-15T11:35:24.066Z,17.98
2023-05-15T11:38:12.328Z,18.15
2023-05-15T11:40:59.041Z,17.88
2023-05-15T11:43:28.756Z,18.17
2023-05-15T11:46:18.718Z,18.10
2023-05-15T11:48:50.434Z,20.13
2023-05-15T11:51:27.635Z,21.08
2023-05-15T11:53:56.063Z,18.35
2023-05-15T11:56:30.507Z,20.55
2023-05-15T11:58:59.797Z,20.33
2023-05-15T12:01:27.334Z,23.48
2023-05-15T12:03:54.867Z,24.15
2023-05-15T12:06:22.925Z,26.05
2023-05-15T12:08:53.902Z,25.15
2023-05-15T12:11:25.588Z,26.42
2023-05-15T12:13:55.000Z,30.80
2023-05-15T12:16:28.700Z,30.60
2023-05-15T12:18:59.773Z,30.55
2023-05-15T12:21:27.908Z,33.30
2023-05-15T12:24:07.527Z,34.08
2023-05-15T12:26:36.090Z,30.50
2023-05-15T12:29:05.175Z,30.17
2023-05-15T12:31:35.764Z,28.55
2023-05-15T12:34:03.219Z,27.42
2023-05-15T12:36:31.064Z,32.28
2023-05-15T12:38:58.804Z,28.35
2023-05-15T12:41:29.300Z,32.65
2023-05-15T12:43:56.358Z,30.70
2023-05-15T12:46:29.315Z,31.73
2023-05-15T12:48:59.857Z,29.42
2023-05-15T12:51:29.819Z,30.02
2023-05-15T12:53:59.662Z,29.75
2023-05-15T12:56:26.586Z,31.48
2023-05-15T12:58:54.605Z,29.27
2023-05-15T13:01:22.628Z,30.55
2023-05-15T13:03:51.003Z,30.02
2023-05-15T13:06:18.300Z,29.80
2023-05-15T13:08:46.495Z,29.85
2023-05-15T13:11:14.907Z,31.48
2023-05-15T13:13:43.093Z,27.67
2023-05-15T13:16:21.660Z,26.80
2023-05-15T13:18:48.895Z,29.23
2023-05-15T13:21:16.329Z,27.13
2023-05-15T13:23:43.497Z,27.40
2023-05-15T13:26:10.483Z,32.90
2023-05-15T13:28:37.470Z,25.67
2023-05-15T13:31:04.935Z,28.42
2023-05-15T13:33:32.066Z,27.50
2023-05-15T13:35:59.075Z,24.58
2023-05-15T13:38:26.211Z,23.73
2023-05-15T13:40:53.139Z,23.23
2023-05-15T13:43:20.178Z,23.50
2023-05-15T13:45:47.349Z,22.30
2023-05-15T13:48:14.316Z,23.92
2023-05-15T13:50:43.200Z,23.63
2023-05-15T13:53:10.161Z,28.75
2023-05-15T13:55:37.098Z,29.27
2023-05-15T13:58:04.455Z,28.55
2023-05-15T14:00:31.481Z,30.20
2023-05-15T14:02:58.673Z,27.30
2023-05-15T14:05:25.688Z,26.90
2023-05-15T14:07:52.650Z,29.60
2023-05-15T14:10:19.811Z,29.50
2023-05-15T14:12:47.175Z,27.50
2023-05-15T14:15:14.094Z,25.23
2023-05-15T14:17:41.486Z,27.35
2023-05-15T14:20:12.969Z,25.98
2023-05-15T14:22:40.726Z,23.88
2023-05-15T14:25:09.032Z,25.05
2023-05-15T14:27:36.103Z,22.63
2023-05-15T14:30:03.124Z,18.17
2023-05-15T14:32:30.122Z,17.13
2023-05-15T14:34:59.864Z,16.02
2023-05-15T14:37:28.371Z,16.25
2023-05-15T14:39:55.359Z,13.32
2023-05-15T14:42:22.325Z,12.20
2023-05-15T14:44:49.485Z,10.10
2023-05-15T14:47:16.853Z,7.90
2023-05-15T14:49:43.857Z,6.95
2023-05-15T14:52:12.572Z,6.40
2023-05-15T14:54:40.154Z,7.35
2023-05-15T14:57:08.023Z,7.05
2023-05-15T14:59:35.344Z,7.20
2023-05-15T15:02:02.607Z,5.80
2023-05-15T15:04:34.272Z,4.55
2023-05-15T15:07:05.096Z,7.47
2023-05-15T15:09:32.136Z,6.20
2023-05-15T15:12:02.342Z,8.05
2023-05-15T15:14:29.436Z,7.68
2023-05-15T15:16:56.451Z,5.88
2023-05-15T15:19:23.683Z,6.57
2023-05-15T15:21:50.819Z,5.97
2023-05-15T15:24:17.890Z,6.55
2023-05-15T15:26:44.868Z,6.50
2023-05-15T15:29:14.835Z,4.80
2023-05-15T15:31:42.098Z,7.13
2023-05-15T15:34:10.135Z,5.32
2023-05-15T15:36:41.493Z,7.53
2023-05-15T15:39:08.579Z,7.43
2023-05-15T15:41:38.615Z,7.50
2023-05-15T15:44:05.645Z,6.45
2023-05-15T15:46:32.640Z,5.68
2023-05-15T15:49:00.260Z,7.60
2023-05-15T15:51:27.380Z,8.93
2023-05-15T15:53:54.390Z,7.90
2023-05-15T15:56:21.413Z,5.72
2023-05-15T15:58:48.375Z,7.47
2023-05-15T16:01:15.538Z,9.45
2023-05-15T16:03:42.524Z,7.10
2023-05-15T16:06:09.467Z,6.15
2023-05-15T16:08:36.613Z,6.07
2023-05-15T16:11:04.111Z,7.82
2023-05-15T16:13:31.243Z,7.07
2023-05-15T16:15:58.218Z,6.55
2023-05-15T16:18:25.207Z,6.80
2023-05-15T16:20:52.172Z,6.22
2023-05-15T16:23:21.218Z,4.80
2023-05-15T16:25:48.286Z,4.82
2023-05-15T16:28:15.332Z,3.72
2023-05-15T16:30:48.976Z,5.55
2023-05-15T16:33:18.677Z,4.38
2023-05-15T16:35:47.375Z,2.70
2023-05-15T16:38:14.720Z,3.20
2023-05-15T16:40:41.736Z,4.60
2023-05-15T16:43:09.066Z,3.50
2023-05-15T16:45:36.248Z,6.03
2023-05-15T16:48:03.782Z,2.47
2023-05-15T16:50:32.716Z,3.83
2023-05-15T16:52:59.725Z,3.20
2023-05-15T16:55:27.011Z,5.57
2023-05-15T16:57:54.177Z,4.53
2023-05-15T17:00:21.990Z,4.88
2023-05-15T17:02:50.763Z,4.35
2023-05-15T17:05:18.014Z,3.45
2023-05-15T17:07:45.376Z,4.88
2023-05-15T17:10:13.342Z,5.03
2023-05-15T17:12:40.665Z,4.63
2023-05-15T17:15:08.508Z,4.50
2023-05-15T17:17:35.895Z,3.90
2023-05-15T17:20:05.674Z,3.78
2023-05-15T17:22:32.895Z,6.57
2023-05-15T17:24:59.919Z,4.00
2023-05-15T17:27:26.856Z,5.10
2023-05-15T17:29:53.781Z,3.85
2023-05-15T17:32:21.558Z,5.35
2023-05-15T17:34:50.147Z,3.97
2023-05-15T17:37:17.495Z,4.32
2023-05-15T17:39:44.441Z,4.35
2023-05-15T17:42:11.416Z,6.13
2023-05-15T17:44:38.610Z,5.03
2023-05-15T17:47:06.774Z,4.00
2023-05-15T17:49:34.498Z,4.60
2023-05-15T17:52:01.613Z,4.05
2023-05-15T17:54:28.765Z,5.40
2023-05-15T17:56:56.252Z,8.43
2023-05-15T17:59:23.499Z,5.57
2023-05-15T18:01:50.481Z,6.43
2023-05-15T18:04:17.544Z,6.43
2023-05-15T18:06:44.589Z,7.95
2023-05-15T18:09:11.945Z,4.60
2023-05-15T18:11:38.977Z,7.13
2023-05-15T18:14:10.404Z,5.60
2023-05-15T18:16:38.583Z,5.13
2023-05-15T18:19:05.856Z,5.30
2023-05-15T18:21:34.145Z,5.57
2023-05-15T18:24:02.048Z,4.90
2023-05-15T18:26:31.150Z,2.97
2023-05-15T18:28:58.088Z,5.30
2023-05-15T18:31:25.234Z,6.47
2023-05-15T18:33:52.220Z,7.87
2023-05-15T18:36:20.491Z,6.80
2023-05-15T18:38:47.533Z,7.83
2023-05-15T18:41:14.438Z,6.23
2023-05-15T18:43:41.415Z,6.90
2023-05-15T18:46:08.396Z,5.03
2023-05-15T18:48:35.400Z,10.13
2023-05-15T18:51:02.635Z,9.13
2023-05-15T18:53:29.606Z,9.33
2023-05-15T18:55:56.566Z,10.73
2023-05-15T18:58:24.049Z,10.27
2023-05-15T19:00:50.997Z,5.43
2023-05-15T19:03:19.251Z,8.77
2023-05-15T19:05:46.226Z,14.60
2023-05-15T19:08:13.122Z,5.37
2023-05-15T19:10:40.254Z,8.90
2023-05-15T19:13:07.140Z,9.07
2023-05-15T19:15:35.060Z,9.70
2023-05-15T19:18:02.029Z,6.60
2023-05-15T19:20:29.093Z,9.77
2023-05-15T19:22:56.031Z,11.10
2023-05-15T19:25:23.341Z,6.67
2023-05-15T19:27:50.372Z,8.90
2023-05-15T19:30:17.424Z,13.37
2023-05-15T19:32:45.457Z,10.63
2023-05-15T19:35:12.449Z,10.73
2023-05-15T19:37:39.451Z,15.13
2023-05-15T19:40:07.493Z,9.60
2023-05-15T19:42:34.464Z,6.37
2023-05-15T19:45:01.443Z,9.20
2023-05-15T19:47:28.411Z,14.10
2023-05-15T19:49:55.326Z,11.77
2023-05-15T19:52:22.356Z,8.27
2023-05-15T19:54:49.247Z,8.00
2023-05-15T19:57:16.304Z,7.50
2023-05-15T19:59:43.248Z,8.70
2023-05-15T20:02:11.166Z,8.53
2023-05-15T20:04:38.143Z,7.93
2023-05-15T20:07:05.607Z,8.43
2023-05-15T20:09:32.663Z,8.90
2023-05-15T20:11:59.726Z,6.83
2023-05-15T20:14:27.431Z,8.53
2023-05-15T20:16:54.309Z,6.80
2023-05-15T20:19:24.797Z,6.50
2023-05-15T20:21:52.269Z,5.80
2023-05-15T20:24:19.171Z,6.83
2023-05-15T20:26:46.207Z,7.80
2023-05-15T20:29:13.139Z,4.33
2023-05-15T20:31:40.382Z,6.17
2023-05-15T20:34:08.343Z,3.23
2023-05-15T20:36:38.733Z,3.60
2023-05-15T20:39:07.196Z,3.57
2023-05-15T20:41:34.714Z,3.37
2023-05-15T20:44:01.827Z,3.37
2023-05-15T20:46:30.236Z,3.27
2023-05-15T20:48:57.491Z,3.80
2023-05-15T20:51:24.603Z,4.93
2023-05-15T20:53:51.663Z,4.73
2023-05-15T20:56:18.835Z,5.23
2023-05-15T20:58:46.064Z,4.63
2023-05-15T21:01:13.178Z,4.43
2023-05-15T21:03:40.234Z,2.97
2023-05-15T21:06:08.037Z,5.37
2023-05-15T21:08:35.478Z,3.90
2023-05-15T21:11:02.544Z,4.90
2023-05-15T21:13:29.601Z,3.93
2023-05-15T21:15:56.554Z,3.13
2023-05-15T21:18:23.817Z,3.77
2023-05-15T21:20:50.881Z,7.47
2023-05-15T21:23:18.228Z,7.30
2023-05-15T21:25:45.268Z,3.77
2023-05-15T21:28:12.419Z,4.27
2023-05-15T21:30:39.393Z,4.27
2023-05-15T21:33:06.396Z,3.87
2023-05-15T21:35:33.678Z,5.10
2023-05-15T21:38:00.885Z,4.97
2023-05-15T21:40:28.020Z,4.73
2023-05-15T21:42:55.052Z,6.43
2023-05-15T21:45:22.032Z,5.87
2023-05-15T21:47:49.072Z,3.87
2023-05-15T21:50:16.128Z,7.07
2023-05-15T21:52:43.277Z,4.47
2023-05-15T21:55:10.611Z,5.77
2023-05-15T21:57:37.620Z,5.23
2023-05-15T22:00:07.480Z,8.03
2023-05-15T22:02:35.562Z,7.67
2023-05-15T22:05:03.749Z,5.33
2023-05-15T22:07:30.932Z,5.37
2023-05-15T22:09:57.814Z,7.53
2023-05-15T22:12:24.743Z,4.90
2023-05-15T22:14:58.840Z,7.93
2023-05-15T22:17:29.105Z,7.03
2023-05-15T22:20:06.605Z,7.23
2023-05-15T22:22:35.684Z,7.33
2023-05-15T22:25:02.841Z,7.43
2023-05-15T22:27:30.135Z,8.10
2023-05-15T22:29:57.707Z,7.13
2023-05-15T22:32:24.963Z,5.87
2023-05-15T22:34:51.990Z,6.10
2023-05-15T22:37:19.099Z,9.63
2023-05-15T22:39:46.139Z,5.90
2023-05-15T22:42:13.091Z,7.67
2023-05-15T22:44:40.314Z,8.30
2023-05-15T22:47:07.782Z,10.50
2023-05-15T22:49:34.907Z,9.37
2023-05-15T22:52:01.966Z,10.23
2023-05-15T22:54:29.352Z,10.00
2023-05-15T22:56:56.550Z,10.20
2023-05-15T22:59:23.593Z,12.60
2023-05-15T23:01:50.672Z,11.77
2023-05-15T23:04:18.634Z,8.17
2023-05-15T23:06:46.523Z,8.83
2023-05-15T23:09:13.512Z,9.33
2023-05-15T23:11:40.481Z,8.30
2023-05-15T23:14:09.807Z,12.70
2023-05-15T23:16:36.775Z,11.50
2023-05-15T23:19:04.301Z,13.30
2023-05-15T23:21:31.355Z,11.57
2023-05-15T23:23:59.104Z,12.60
2023-05-15T23:26:29.052Z,8.93
2023-05-15T23:28:55.997Z,7.53
2023-05-15T23:31:22.960Z,9.03
2023-05-15T23:33:51.673Z,12.60
2023-05-15T23:36:18.747Z,14.27
2023-05-15T23:38:45.763Z,9.10
2023-05-15T23:41:12.849Z,9.97
2023-05-15T23:43:39.801Z,11.17
2023-05-15T23:46:06.794Z,9.63
2023-05-15T23:48:34.071Z,10.63
2023-05-15T23:51:01.046Z,13.77
2023-05-15T23:53:28.029Z,9.07
2023-05-15T23:55:54.984Z,9.87
2023-05-15T23:58:21.975Z,11.60
